createdAt,value
2023-02-28T00:00:11.528Z,4.15
2023-02-28T00:02:38.405Z,4.13
2023-02-28T00:05:05.091Z,4.40
2023-02-28T00:07:31.529Z,4.05
2023-02-28T00:09:58.072Z,4.00
2023-02-28T00:12:24.457Z,3.83
2023-02-28T00:14:50.762Z,3.75
2023-02-28T00:17:18.805Z,3.40
2023-02-28T00:19:45.074Z,3.63
2023-02-28T00:22:11.312Z,3.70
2023-02-28T00:24:37.584Z,3.42
2023-02-28T00:27:03.795Z,3.67
2023-02-28T00:29:29.985Z,4.25
2023-02-28T00:31:56.227Z,4.22
2023-02-28T00:34:22.432Z,3.88
2023-02-28T00:36:51.528Z,3.40
2023-02-28T00:39:18.001Z,3.97
2023-02-28T00:41:44.338Z,3.90
2023-02-28T00:44:10.565Z,4.00
2023-02-28T00:46:36.846Z,3.53
2023-02-28T00:49:03.095Z,3.67
2023-02-28T00:51:30.274Z,3.90
2023-02-28T00:53:56.820Z,3.75
2023-02-28T00:56:23.045Z,3.53
2023-02-28T00:58:49.266Z,3.05
2023-02-28T01:01:15.502Z,3.28
2023-02-28T01:03:41.752Z,3.95
2023-02-28T01:06:08.033Z,3.30
2023-02-28T01:08:34.211Z,3.72
2023-02-28T01:11:07.657Z,3.33
2023-02-28T01:13:33.898Z,3.78
2023-02-28T01:16:00.222Z,3.50
2023-02-28T01:18:26.603Z,3.63
2023-02-28T01:20:53.402Z,3.78
2023-02-28T01:23:20.915Z,3.47
2023-02-28T01:25:47.161Z,3.53
2023-02-28T01:28:13.375Z,3.50
2023-02-28T01:30:39.611Z,3.83
2023-02-28T01:33:05.836Z,3.95
2023-02-28T01:35:36.046Z,3.90
2023-02-28T01:38:20.611Z,4.15
2023-02-28T01:40:47.333Z,3.65
2023-02-28T01:43:25.059Z,3.90
2023-02-28T01:45:51.826Z,3.35
2023-02-28T01:48:18.862Z,3.40
2023-02-28T01:50:46.151Z,3.80
2023-02-28T01:53:14.857Z,3.80
2023-02-28T01:55:42.140Z,3.85
2023-02-28T01:58:09.918Z,3.40
2023-02-28T02:00:36.156Z,3.63
2023-02-28T02:03:10.190Z,3.78
2023-02-28T02:05:37.512Z,3.65
2023-02-28T02:08:26.976Z,3.60
2023-02-28T02:10:55.752Z,3.70
2023-02-28T02:13:33.284Z,3.63
2023-02-28T02:16:05.264Z,3.70
2023-02-28T02:18:37.549Z,3.65
2023-02-28T02:21:15.051Z,3.53
2023-02-28T02:23:55.451Z,3.80
2023-02-28T02:26:42.799Z,3.75
2023-02-28T02:29:32.134Z,3.60
2023-02-28T02:32:04.189Z,3.47
2023-02-28T02:34:41.937Z,3.25
2023-02-28T02:37:11.873Z,3.65
2023-02-28T02:39:56.240Z,3.28
2023-02-28T02:42:26.308Z,3.60
2023-02-28T02:45:03.872Z,3.72
2023-02-28T02:47:31.576Z,3.80
2023-02-28T02:50:00.442Z,3.75
2023-02-28T02:52:32.314Z,3.63
2023-02-28T02:54:59.875Z,3.85
2023-02-28T02:57:37.557Z,3.50
2023-02-28T03:00:06.036Z,3.80
2023-02-28T03:02:35.131Z,3.47
2023-02-28T03:05:03.430Z,3.65
2023-02-28T03:07:29.628Z,3.00
2023-02-28T03:09:56.533Z,3.72
2023-02-28T03:12:24.682Z,3.30
2023-02-28T03:14:56.447Z,3.42
2023-02-28T03:17:22.633Z,3.20
2023-02-28T03:19:52.036Z,3.22
2023-02-28T03:22:30.043Z,3.00
2023-02-28T03:25:01.854Z,3.50
2023-02-28T03:27:28.050Z,3.40
2023-02-28T03:30:01.852Z,3.38
2023-02-28T03:32:34.488Z,3.33
2023-02-28T03:35:06.835Z,3.97
2023-02-28T03:37:36.776Z,3.60
2023-02-28T03:40:09.708Z,3.90
2023-02-28T03:42:37.350Z,3.50
2023-02-28T03:45:08.514Z,3.67
2023-02-28T03:47:38.347Z,3.67
2023-02-28T03:50:08.405Z,3.05
2023-02-28T03:52:37.454Z,3.40
2023-02-28T03:55:08.022Z,3.80
2023-02-28T03:57:38.104Z,3.53
2023-02-28T04:00:10.779Z,3.33
2023-02-28T04:02:37.202Z,3.55
2023-02-28T04:05:03.493Z,3.45
2023-02-28T04:07:30.450Z,3.63
2023-02-28T04:09:57.006Z,3.75
2023-02-28T04:12:24.069Z,3.50
2023-02-28T04:14:50.559Z,3.97
2023-02-28T04:17:17.213Z,3.83
2023-02-28T04:19:43.413Z,3.80
2023-02-28T04:22:10.032Z,3.65
2023-02-28T04:24:36.587Z,3.75
2023-02-28T04:27:02.870Z,4.20
2023-02-28T04:29:33.041Z,3.80
2023-02-28T04:32:00.254Z,3.80
2023-02-28T04:34:27.515Z,4.50
2023-02-28T04:37:11.537Z,4.07
2023-02-28T04:39:38.591Z,3.67
2023-02-28T04:42:05.023Z,4.38
2023-02-28T04:44:31.204Z,4.03
2023-02-28T04:46:57.406Z,4.13
2023-02-28T04:49:23.715Z,4.00
2023-02-28T04:51:50.858Z,4.35
2023-02-28T04:54:18.861Z,4.47
2023-02-28T04:56:45.107Z,4.15
2023-02-28T04:59:11.291Z,4.20
2023-02-28T05:01:37.488Z,4.50
2023-02-28T05:04:04.355Z,4.70
2023-02-28T05:06:31.873Z,4.60
2023-02-28T05:08:58.209Z,4.03
2023-02-28T05:11:26.408Z,4.15
2023-02-28T05:13:52.972Z,4.43
2023-02-28T05:16:19.672Z,4.25
2023-02-28T05:18:46.061Z,4.40
2023-02-28T05:21:26.408Z,4.20
2023-02-28T05:23:53.366Z,4.27
2023-02-28T05:26:19.795Z,4.70
2023-02-28T05:28:46.017Z,3.92
2023-02-28T05:31:12.641Z,4.20
2023-02-28T05:33:38.930Z,4.15
2023-02-28T05:36:05.376Z,5.13
2023-02-28T05:38:31.639Z,4.40
2023-02-28T05:40:57.832Z,3.92
2023-02-28T05:43:24.353Z,4.90
2023-02-28T05:45:50.626Z,4.32
2023-02-28T05:48:17.743Z,4.43
2023-02-28T05:50:45.665Z,4.65
2023-02-28T05:53:11.858Z,4.15
2023-02-28T05:55:38.412Z,4.45
2023-02-28T05:58:04.660Z,3.60
2023-02-28T06:00:30.909Z,3.65
2023-02-28T06:02:58.989Z,4.03
2023-02-28T06:05:25.409Z,3.53
2023-02-28T06:07:51.684Z,3.78
2023-02-28T06:10:17.980Z,3.97
2023-02-28T06:12:44.196Z,3.88
2023-02-28T06:15:14.325Z,3.72
2023-02-28T06:17:41.257Z,3.80
2023-02-28T06:20:08.061Z,3.95
2023-02-28T06:22:34.257Z,3.78
2023-02-28T06:25:00.449Z,4.20
2023-02-28T06:27:26.650Z,3.85
2023-02-28T06:29:54.935Z,4.10
2023-02-28T06:32:21.280Z,4.20
2023-02-28T06:34:47.495Z,3.97
2023-02-28T06:37:13.785Z,4.57
2023-02-28T06:39:40.654Z,5.60
2023-02-28T06:42:06.922Z,4.60
2023-02-28T06:44:36.441Z,4.50
2023-02-28T06:47:04.235Z,5.30
2023-02-28T06:49:31.053Z,5.03
2023-02-28T06:51:57.250Z,4.90
2023-02-28T06:54:23.608Z,5.10
2023-02-28T06:56:49.826Z,5.30
2023-02-28T06:59:16.868Z,10.43
2023-02-28T07:01:43.256Z,10.27
2023-02-28T07:04:09.484Z,4.70
2023-02-28T07:06:35.707Z,4.20
2023-02-28T07:09:01.917Z,4.20
2023-02-28T07:11:29.100Z,4.40
2023-02-28T07:13:56.134Z,4.50
2023-02-28T07:16:22.564Z,4.30
2023-02-28T07:18:49.029Z,4.90
2023-02-28T07:21:15.618Z,4.45
2023-02-28T07:23:42.664Z,3.90
2023-02-28T07:26:13.751Z,4.22
2023-02-28T07:28:39.996Z,3.95
2023-02-28T07:31:07.163Z,3.50
2023-02-28T07:33:34.864Z,3.67
2023-02-28T07:36:02.284Z,3.90
2023-02-28T07:38:28.500Z,3.92
2023-02-28T07:40:54.734Z,3.40
2023-02-28T07:43:20.938Z,3.83
2023-02-28T07:45:47.383Z,3.40
2023-02-28T07:48:13.597Z,3.90
2023-02-28T07:50:39.836Z,3.50
2023-02-28T07:53:06.074Z,3.55
2023-02-28T07:55:32.256Z,3.30
2023-02-28T07:57:58.966Z,2.75
2023-02-28T08:00:25.226Z,2.55
2023-02-28T08:02:52.118Z,3.05
2023-02-28T08:05:20.756Z,2.90
2023-02-28T08:07:49.676Z,2.85
2023-02-28T08:10:15.982Z,3.03
2023-02-28T08:12:42.219Z,2.50
2023-02-28T08:15:08.810Z,2.78
2023-02-28T08:17:35.546Z,2.78
2023-02-28T08:20:01.813Z,2.65
2023-02-28T08:22:28.017Z,3.13
2023-02-28T08:24:54.211Z,3.35
2023-02-28T08:27:20.409Z,2.92
2023-02-28T08:29:46.678Z,2.90
2023-02-28T08:32:28.571Z,2.80
2023-02-28T08:34:55.902Z,2.90
2023-02-28T08:37:22.117Z,2.60
2023-02-28T08:39:48.328Z,2.50
2023-02-28T08:42:14.713Z,2.50
2023-02-28T08:44:41.630Z,3.08
2023-02-28T08:47:07.831Z,3.35
2023-02-28T08:49:34.048Z,3.10
2023-02-28T08:52:00.273Z,2.70
2023-02-28T08:54:26.585Z,2.45
2023-02-28T08:56:52.814Z,2.20
2023-02-28T08:59:19.184Z,2.60
2023-02-28T09:01:45.454Z,2.20
2023-02-28T09:04:13.272Z,2.03
2023-02-28T09:06:40.841Z,2.13
2023-02-28T09:09:08.253Z,1.77
2023-02-28T09:11:35.619Z,1.95
2023-02-28T09:14:04.078Z,1.73
2023-02-28T09:16:31.731Z,1.90
2023-02-28T09:18:58.045Z,1.90
2023-02-28T09:21:24.314Z,1.90
2023-02-28T09:23:51.152Z,2.13
2023-02-28T09:26:22.013Z,2.08
2023-02-28T09:28:48.273Z,1.90
2023-02-28T09:31:16.204Z,1.77
2023-02-28T09:33:42.515Z,1.80
2023-02-28T09:36:09.384Z,1.73
2023-02-28T09:38:36.480Z,1.73
2023-02-28T09:41:04.211Z,1.80
2023-02-28T09:43:34.221Z,1.80
2023-02-28T09:46:03.756Z,1.65
2023-02-28T09:48:37.371Z,1.58
2023-02-28T09:51:06.740Z,1.90
2023-02-28T09:53:39.568Z,1.88
2023-02-28T09:56:10.730Z,1.85
2023-02-28T09:58:45.613Z,2.10
2023-02-28T10:01:18.572Z,1.80
2023-02-28T10:03:57.172Z,1.88
2023-02-28T10:06:26.826Z,1.75
2023-02-28T10:08:59.237Z,1.98
2023-02-28T10:11:26.352Z,1.80
2023-02-28T10:14:02.227Z,1.80
2023-02-28T10:16:40.062Z,1.75
2023-02-28T10:19:12.348Z,1.58
2023-02-28T10:21:50.816Z,1.88
2023-02-28T10:24:21.320Z,2.00
2023-02-28T10:26:48.146Z,1.70
2023-02-28T10:29:14.556Z,1.70
2023-02-28T10:31:41.276Z,1.60
2023-02-28T10:34:08.472Z,1.90
2023-02-28T10:36:36.226Z,1.90
2023-02-28T10:39:04.064Z,1.67
2023-02-28T10:41:35.372Z,1.80
2023-02-28T10:44:16.007Z,1.90
2023-02-28T10:46:43.294Z,1.98
2023-02-28T10:49:14.946Z,1.80
2023-02-28T10:51:42.188Z,2.05
2023-02-28T10:54:20.183Z,1.95
2023-02-28T10:56:46.734Z,1.85
2023-02-28T10:59:15.686Z,2.00
2023-02-28T11:01:44.198Z,2.20
2023-02-28T11:04:18.163Z,2.00
2023-02-28T11:06:44.788Z,2.08
2023-02-28T11:09:25.022Z,2.08
2023-02-28T11:11:53.460Z,1.65
2023-02-28T11:14:30.560Z,2.33
2023-02-28T11:16:59.265Z,1.88
2023-02-28T11:19:30.864Z,2.42
2023-02-28T11:21:59.809Z,2.25
2023-02-28T11:24:37.186Z,2.00
2023-02-28T11:27:03.574Z,2.10
2023-02-28T11:29:31.765Z,2.15
2023-02-28T11:32:03.908Z,2.13
2023-02-28T11:34:30.350Z,2.20
2023-02-28T11:36:57.668Z,2.28
2023-02-28T11:39:24.042Z,2.28
2023-02-28T11:41:58.649Z,2.20
2023-02-28T11:44:43.533Z,2.28
2023-02-28T11:47:18.519Z,2.10
2023-02-28T11:50:00.537Z,2.28
2023-02-28T11:52:49.534Z,2.33
2023-02-28T11:55:15.861Z,2.50
2023-02-28T11:58:03.887Z,2.17
2023-02-28T12:00:48.612Z,2.42
2023-02-28T12:03:30.975Z,2.60
2023-02-28T12:05:57.303Z,2.53
2023-02-28T12:08:27.901Z,2.40
2023-02-28T12:11:01.057Z,2.60
2023-02-28T12:13:46.146Z,2.53
2023-02-28T12:16:28.746Z,2.60
2023-02-28T12:19:01.912Z,2.30
2023-02-28T12:21:34.688Z,2.40
2023-02-28T12:24:18.773Z,2.08
2023-02-28T12:26:50.257Z,2.58
2023-02-28T12:31:46.480Z,2.20
2023-02-28T12:34:15.709Z,2.83
2023-02-28T12:36:45.148Z,3.00
2023-02-28T12:39:31.194Z,2.47
2023-02-28T12:42:08.744Z,2.50
2023-02-28T12:44:50.060Z,2.42
2023-02-28T12:47:17.956Z,2.70
2023-02-28T12:49:47.940Z,2.67
2023-02-28T12:52:17.386Z,2.60
2023-02-28T12:54:56.008Z,2.72
2023-02-28T12:57:25.060Z,3.30
2023-02-28T12:59:53.427Z,3.58
2023-02-28T13:02:22.838Z,3.50
2023-02-28T13:04:52.014Z,3.20
2023-02-28T13:07:18.232Z,2.80
2023-02-28T13:09:52.944Z,2.80
2023-02-28T13:12:19.336Z,2.92
2023-02-28T13:14:46.367Z,3.08
2023-02-28T13:17:16.533Z,2.97
2023-02-28T13:19:48.573Z,3.63
2023-02-28T13:22:36.529Z,3.63
2023-02-28T13:25:02.816Z,3.15
2023-02-28T13:27:42.712Z,3.40
2023-02-28T13:30:27.661Z,3.13
2023-02-28T13:33:13.826Z,3.17
2023-02-28T13:35:44.931Z,3.15
2023-02-28T13:38:16.700Z,3.55
2023-02-28T13:40:42.926Z,3.60
2023-02-28T13:43:09.969Z,3.38
2023-02-28T13:45:39.342Z,3.35
2023-02-28T13:48:16.127Z,3.22
2023-02-28T13:50:43.332Z,3.00
2023-02-28T13:53:15.597Z,3.55
2023-02-28T13:55:45.162Z,3.35
2023-02-28T13:58:24.178Z,3.58
2023-02-28T14:01:05.458Z,3.42
2023-02-28T14:03:50.254Z,3.58
2023-02-28T14:06:16.780Z,3.22
2023-02-28T14:08:56.953Z,3.75
2023-02-28T14:11:30.849Z,3.17
2023-02-28T14:13:57.177Z,3.38
2023-02-28T14:16:37.424Z,3.55
2023-02-28T14:19:10.192Z,3.70
2023-02-28T14:21:37.501Z,3.78
2023-02-28T14:24:22.174Z,3.40
2023-02-28T14:26:54.179Z,4.30
2023-02-28T14:29:29.478Z,3.40
2023-02-28T14:32:01.766Z,3.85
2023-02-28T14:34:41.165Z,3.58
2023-02-28T14:37:11.701Z,3.70
2023-02-28T14:39:41.677Z,3.90
2023-02-28T14:42:27.848Z,3.63
2023-02-28T14:44:57.449Z,4.03
2023-02-28T14:47:24.542Z,4.10
2023-02-28T14:49:51.818Z,3.67
2023-02-28T14:52:20.873Z,3.30
2023-02-28T14:54:52.141Z,4.30
2023-02-28T14:57:29.823Z,3.83
2023-02-28T15:00:02.503Z,3.60
2023-02-28T15:02:35.079Z,4.00
2023-02-28T15:05:13.189Z,3.95
2023-02-28T15:07:39.554Z,4.10
2023-02-28T15:10:10.131Z,3.90
2023-02-28T15:12:37.220Z,4.13
2023-02-28T15:15:03.826Z,4.20
2023-02-28T15:17:30.441Z,4.28
2023-02-28T15:19:56.751Z,4.07
2023-02-28T15:22:32.277Z,4.25
2023-02-28T15:24:59.889Z,4.18
2023-02-28T15:27:27.981Z,3.90
2023-02-28T15:29:58.453Z,3.97
2023-02-28T15:32:27.586Z,4.43
2023-02-28T15:34:55.016Z,4.63
2023-02-28T15:37:33.373Z,4.75
2023-02-28T15:40:11.652Z,4.50
2023-02-28T15:42:37.852Z,4.78
2023-02-28T15:45:04.236Z,4.10
2023-02-28T15:47:30.808Z,4.00
2023-02-28T15:49:56.990Z,4.05
2023-02-28T15:52:32.596Z,3.83
2023-02-28T15:54:59.048Z,3.95
2023-02-28T15:57:27.202Z,3.83
2023-02-28T15:59:57.304Z,3.97
2023-02-28T16:02:37.568Z,3.80
2023-02-28T16:05:06.938Z,4.28
2023-02-28T16:07:34.288Z,4.20
2023-02-28T16:10:01.166Z,4.65
2023-02-28T16:12:31.434Z,4.47
2023-02-28T16:15:03.715Z,4.47
2023-02-28T16:17:31.787Z,3.92
2023-02-28T16:19:58.857Z,4.20
2023-02-28T16:22:25.088Z,5.07
2023-02-28T16:24:51.890Z,4.38
2023-02-28T16:27:20.697Z,4.68
2023-02-28T16:29:47.274Z,4.32
2023-02-28T16:32:14.993Z,4.95
2023-02-28T16:34:41.275Z,5.05
2023-02-28T16:37:12.072Z,4.40
2023-02-28T16:39:38.280Z,4.85
2023-02-28T16:42:04.734Z,4.60
2023-02-28T16:44:33.219Z,4.00
2023-02-28T16:47:03.081Z,4.07
2023-02-28T16:49:29.583Z,4.45
2023-02-28T16:51:55.979Z,4.07
2023-02-28T16:54:22.450Z,4.57
2023-02-28T16:56:49.218Z,4.45
2023-02-28T16:59:18.825Z,4.35
2023-02-28T17:01:45.161Z,4.38
2023-02-28T17:04:12.380Z,4.85
2023-02-28T17:06:38.701Z,5.50
2023-02-28T17:09:05.075Z,5.07
2023-02-28T17:11:31.633Z,4.45
2023-02-28T17:13:58.153Z,4.75
2023-02-28T17:16:29.218Z,4.45
2023-02-28T17:18:57.532Z,4.15
2023-02-28T17:21:23.788Z,4.75
2023-02-28T17:23:50.010Z,5.43
2023-02-28T17:26:18.464Z,5.10
2023-02-28T17:28:44.655Z,5.25
2023-02-28T17:31:10.952Z,5.10
2023-02-28T17:33:37.196Z,4.90
2023-02-28T17:36:03.579Z,5.60
2023-02-28T17:38:29.802Z,5.75
2023-02-28T17:40:58.068Z,5.65
2023-02-28T17:43:27.653Z,5.13
2023-02-28T17:45:54.721Z,5.07
2023-02-28T17:48:21.022Z,5.68
2023-02-28T17:50:47.300Z,5.10
2023-02-28T17:53:13.500Z,5.00
2023-02-28T17:55:41.087Z,5.72
2023-02-28T17:58:10.086Z,5.75
2023-02-28T18:00:36.330Z,5.03
2023-02-28T18:03:02.585Z,4.80
2023-02-28T18:05:28.855Z,4.90
2023-02-28T18:07:55.092Z,5.00
2023-02-28T18:10:21.453Z,5.50
2023-02-28T18:12:48.680Z,5.20
2023-02-28T18:15:15.735Z,5.35
2023-02-28T18:17:42.262Z,6.18
2023-02-28T18:20:10.286Z,5.82
2023-02-28T18:22:38.080Z,5.93
2023-02-28T18:25:05.566Z,5.85
2023-02-28T18:27:31.882Z,6.10
2023-02-28T18:29:58.424Z,6.03
2023-02-28T18:32:24.687Z,6.35
2023-02-28T18:34:50.908Z,6.00
2023-02-28T18:37:18.396Z,6.10
2023-02-28T18:39:44.660Z,6.03
2023-02-28T18:42:10.886Z,5.80
2023-02-28T18:44:37.649Z,6.10
2023-02-28T18:47:04.076Z,6.00
2023-02-28T18:49:37.827Z,7.05
2023-02-28T18:52:04.083Z,6.97
2023-02-28T18:54:30.278Z,6.47
2023-02-28T18:56:56.513Z,6.93
2023-02-28T18:59:23.060Z,6.93
2023-02-28T19:01:49.346Z,6.72
2023-02-28T19:04:15.630Z,7.00
2023-02-28T19:06:42.136Z,6.93
2023-02-28T19:09:08.872Z,6.55
2023-02-28T19:11:36.574Z,6.10
2023-02-28T19:14:03.083Z,6.90
2023-02-28T19:16:29.778Z,7.10
2023-02-28T19:18:57.356Z,7.10
2023-02-28T19:21:23.926Z,7.60
2023-02-28T19:23:50.289Z,6.97
2023-02-28T19:26:18.283Z,7.28
2023-02-28T19:28:44.568Z,7.30
2023-02-28T19:31:14.312Z,6.97
2023-02-28T19:33:40.751Z,7.75
2023-02-28T19:36:07.248Z,7.00
2023-02-28T19:38:33.441Z,7.20
2023-02-28T19:41:00.574Z,7.85
2023-02-28T19:43:26.764Z,8.50
2023-02-28T19:45:53.088Z,8.02
2023-02-28T19:48:24.925Z,7.80
2023-02-28T19:50:51.341Z,7.78
2023-02-28T19:53:17.548Z,8.20
2023-02-28T19:55:46.154Z,8.20
2023-02-28T19:58:12.362Z,8.40
2023-02-28T20:00:38.584Z,7.78
2023-02-28T20:03:04.792Z,8.00
2023-02-28T20:05:30.977Z,12.23
2023-02-28T20:07:57.330Z,9.65
2023-02-28T20:10:23.537Z,8.32
2023-02-28T20:12:49.745Z,9.50
2023-02-28T20:15:16.114Z,9.18
2023-02-28T20:17:42.673Z,9.55
2023-02-28T20:20:11.499Z,8.85
2023-02-28T20:22:39.097Z,8.85
2023-02-28T20:25:06.320Z,8.48
2023-02-28T20:27:33.750Z,8.30
2023-02-28T20:29:59.970Z,8.30
2023-02-28T20:32:26.304Z,9.25
2023-02-28T20:34:52.884Z,9.77
2023-02-28T20:37:19.182Z,9.55
2023-02-28T20:39:45.459Z,9.55
2023-02-28T20:42:11.706Z,9.75
2023-02-28T20:44:37.908Z,8.90
2023-02-28T20:47:04.173Z,8.50
2023-02-28T20:49:30.363Z,9.20
2023-02-28T20:51:56.594Z,9.40
2023-02-28T20:54:22.926Z,9.52
2023-02-28T20:56:49.138Z,9.93
2023-02-28T20:59:15.357Z,9.73
2023-02-28T21:01:44.618Z,9.43
2023-02-28T21:04:10.856Z,9.52
2023-02-28T21:06:38.425Z,8.93
2023-02-28T21:09:06.245Z,9.68
2023-02-28T21:11:33.345Z,9.60
2023-02-28T21:14:00.698Z,9.88
2023-02-28T21:16:29.413Z,9.48
2023-02-28T21:18:56.065Z,10.20
2023-02-28T21:21:23.597Z,10.05
2023-02-28T21:23:50.543Z,10.18
2023-02-28T21:26:18.565Z,9.88
2023-02-28T21:28:49.571Z,10.23
2023-02-28T21:31:16.540Z,10.27
2023-02-28T21:33:43.538Z,10.05
2023-02-28T21:36:20.755Z,9.98
2023-02-28T21:38:47.527Z,9.77
2023-02-28T21:41:15.333Z,10.35
2023-02-28T21:43:41.952Z,9.85
2023-02-28T21:46:09.831Z,10.60
2023-02-28T21:48:36.579Z,10.85
2023-02-28T21:51:04.309Z,10.60
2023-02-28T21:53:31.201Z,10.65
2023-02-28T21:56:04.600Z,10.55
2023-02-28T21:58:30.922Z,10.85
2023-02-28T22:01:15.817Z,10.20
2023-02-28T22:03:42.553Z,10.85
2023-02-28T22:06:13.723Z,10.50
2023-02-28T22:08:40.457Z,10.77
2023-02-28T22:11:07.164Z,10.52
2023-02-28T22:13:33.714Z,10.95
2023-02-28T22:16:07.413Z,10.30
2023-02-28T22:18:34.308Z,10.18
2023-02-28T22:21:00.563Z,10.15
2023-02-28T22:23:27.355Z,9.45
2023-02-28T22:25:54.014Z,9.85
2023-02-28T22:28:20.728Z,10.68
2023-02-28T22:30:47.798Z,9.95
2023-02-28T22:33:14.709Z,9.20
2023-02-28T22:35:40.994Z,10.07
2023-02-28T22:38:07.514Z,11.85
2023-02-28T22:40:35.375Z,9.30
2023-02-28T22:43:01.791Z,9.10
2023-02-28T22:45:28.031Z,9.00
2023-02-28T22:47:54.377Z,9.43
2023-02-28T22:50:20.582Z,8.85
2023-02-28T22:52:46.780Z,9.07
2023-02-28T22:55:13.019Z,9.27
2023-02-28T22:57:39.308Z,9.55
2023-02-28T23:00:06.979Z,9.65
2023-02-28T23:02:33.377Z,9.32
2023-02-28T23:04:59.571Z,9.25
2023-02-28T23:07:26.325Z,9.40
2023-02-28T23:09:54.516Z,9.70
2023-02-28T23:12:20.819Z,9.23
2023-02-28T23:14:47.024Z,9.73
2023-02-28T23:17:13.214Z,9.90
2023-02-28T23:19:39.414Z,10.13
2023-02-28T23:22:05.913Z,10.23
2023-02-28T23:24:33.095Z,9.90
2023-02-28T23:27:01.206Z,8.80
2023-02-28T23:29:28.225Z,9.63
2023-02-28T23:31:55.035Z,9.40
2023-02-28T23:34:27.917Z,9.20
2023-02-28T23:36:54.480Z,8.65
2023-02-28T23:39:21.403Z,9.45
2023-02-28T23:41:48.063Z,9.18
2023-02-28T23:44:16.762Z,9.85
2023-02-28T23:46:44.330Z,10.35
2023-02-28T23:49:10.556Z,10.10
2023-02-28T23:51:36.773Z,10.38
2023-02-28T23:54:04.847Z,9.95
2023-02-28T23:56:31.387Z,10.60
2023-02-28T23:58:58.124Z,10.20
